Time;durP1;ratioP1;P1;durP2;ratioP2;P2;SDS_P1;SDS_P2;PMS_P1;PMS_P2;Temp;Humidity;BMP_temperature;BMP_pressure;BME280_temperature;BME280_humidity;BME280_pressure;Samples;Min_cycle;Max_cycle;Signal;HPM_P1;HPM_P2
2022/10/10 04:22:50;;;;;;;4.35;3.13;;;;;;;7.58;100.00;100266.69;5109777;27;20323;-62
2022/10/10 04:25:15;;;;;;;11.40;4.18;;;;;;;7.53;100.00;100274.28;5109465;28;20040;-62
2022/10/10 04:27:42;;;;;;;4.57;2.75;;;;;;;7.49;100.00;100275.53;5109592;28;20050;-61
2022/10/10 04:30:08;;;;;;;6.25;4.10;;;;;;;7.50;100.00;100285.19;5109970;28;20032;-61
2022/10/10 04:32:34;;;;;;;7.57;3.55;;;;;;;7.50;100.00;100265.81;5109087;28;20573;-63
2022/10/10 04:34:59;;;;;;;6.53;3.67;;;;;;;7.51;100.00;100268.28;5109303;28;20036;-62
2022/10/10 04:37:24;;;;;;;12.90;4.50;;;;;;;7.54;100.00;100269.78;5109116;28;20111;-62
2022/10/10 04:39:50;;;;;;;6.82;3.70;;;;;;;7.49;100.00;100264.94;5109639;28;20042;-61
2022/10/10 04:42:16;;;;;;;4.00;2.88;;;;;;;7.57;100.00;100269.50;5108832;28;20097;-61
2022/10/10 04:44:41;;;;;;;10.38;3.75;;;;;;;7.62;100.00;100261.91;5109113;28;20059;-63
2022/10/10 04:47:06;;;;;;;5.50;2.83;;;;;;;7.56;100.00;100260.72;5109097;28;20039;-63
2022/10/10 04:49:32;;;;;;;4.18;2.33;;;;;;;7.57;100.00;100269.50;5108995;28;20040;-61
2022/10/10 04:51:57;;;;;;;4.65;2.40;;;;;;;7.61;100.00;100262.91;5108720;28;20082;-60
2022/10/10 04:54:22;;;;;;;4.07;2.40;;;;;;;7.53;100.00;100260.19;5108779;28;20036;-63
2022/10/10 04:56:48;;;;;;;3.42;2.42;;;;;;;7.50;100.00;100273.75;5108686;28;20040;-62
2022/10/10 04:59:13;;;;;;;2.88;2.53;;;;;;;7.53;100.00;100263.66;5108574;28;20396;-63
2022/10/10 05:01:39;;;;;;;4.72;3.22;;;;;;;7.56;100.00;100266.03;5108335;28;20036;-63
2022/10/10 05:04:05;;;;;;;5.20;2.70;;;;;;;7.60;100.00;100272.66;5108670;28;20065;-62
2022/10/10 05:06:31;;;;;;;4.50;2.85;;;;;;;7.65;100.00;100261.59;5108786;28;20040;-62
2022/10/10 05:08:56;;;;;;;5.47;3.28;;;;;;;7.74;100.00;100268.63;5108622;28;20036;-62
2022/10/10 05:11:21;;;;;;;4.70;2.70;;;;;;;7.76;100.00;100273.78;5108126;28;20043;-62
2022/10/10 05:13:48;;;;;;;5.60;3.30;;;;;;;7.80;100.00;100281.28;5108442;28;20048;-62
2022/10/10 05:16:15;;;;;;;5.30;3.10;;;;;;;7.85;100.00;100276.34;5108498;28;20153;-61
2022/10/10 05:18:40;;;;;;;7.45;3.83;;;;;;;7.85;100.00;100263.09;5108357;28;20046;-61
2022/10/10 05:21:06;;;;;;;7.28;3.50;;;;;;;8.00;100.00;100273.13;5107893;28;20043;-58
2022/10/10 05:23:32;;;;;;;8.30;3.83;;;;;;;8.05;100.00;100261.06;5108329;28;20059;-61
2022/10/10 05:25:58;;;;;;;6.85;3.40;;;;;;;8.07;100.00;100276.81;5108126;28;20040;-60
2022/10/10 05:28:24;;;;;;;8.43;4.18;;;;;;;8.13;100.00;100274.38;5108201;28;20028;-59
2022/10/10 05:30:50;;;;;;;4.85;2.97;;;;;;;8.19;100.00;100272.91;5107974;28;20044;-61
2022/10/10 05:33:15;;;;;;;6.45;3.00;;;;;;;8.23;100.00;100276.94;5099863;28;20047;-59
2022/10/10 05:35:41;;;;;;;5.40;3.35;;;;;;;8.22;100.00;100271.78;5094535;28;20044;-62
2022/10/10 05:38:06;;;;;;;10.40;3.40;;;;;;;8.22;100.00;100275.25;5094410;28;20402;-61
2022/10/10 05:40:32;;;;;;;4.43;3.22;;;;;;;8.28;100.00;100282.59;5094026;28;20346;-60
2022/10/10 05:42:57;;;;;;;10.02;4.20;;;;;;;8.30;100.00;100274.47;5094202;28;20044;-63
2022/10/10 05:45:22;;;;;;;6.53;3.22;;;;;;;8.33;100.00;100288.25;5094223;28;20128;-61
2022/10/10 05:47:48;;;;;;;5.13;3.30;;;;;;;8.38;100.00;100286.00;5094262;28;20039;-61
2022/10/10 05:50:28;;;;;;;6.28;3.15;;;;;;;8.39;100.00;100281.50;5093836;28;20039;-62
2022/10/10 05:52:54;;;;;;;6.32;3.28;;;;;;;8.46;100.00;100281.72;5094027;28;20495;-62
2022/10/10 05:55:19;;;;;;;3.78;3.00;;;;;;;8.50;100.00;100291.03;5094014;28;20028;-60
2022/10/10 05:57:44;;;;;;;8.82;3.65;;;;;;;8.54;100.00;100287.91;5094086;28;20040;-61
2022/10/10 06:00:10;;;;;;;4.80;3.20;;;;;;;8.56;100.00;100290.41;5093800;28;20040;-61
2022/10/10 06:02:36;;;;;;;10.73;3.72;;;;;;;8.58;100.00;100286.56;5094063;28;20113;-62
2022/10/10 06:05:01;;;;;;;6.85;3.72;;;;;;;8.65;100.00;100292.09;5093821;28;20506;-61
2022/10/10 06:07:26;;;;;;;8.10;3.30;;;;;;;8.62;100.00;100293.25;5093822;28;20043;-60
2022/10/10 06:09:52;;;;;;;8.75;3.33;;;;;;;8.68;100.00;100305.06;5093709;28;20137;-63
2022/10/10 06:12:17;;;;;;;6.65;3.30;;;;;;;8.69;100.00;100291.63;5093525;28;20040;-61
2022/10/10 06:14:42;;;;;;;7.03;3.17;;;;;;;8.67;100.00;100287.44;5093739;28;20036;-61
2022/10/10 06:17:08;;;;;;;3.95;3.20;;;;;;;8.68;100.00;100287.31;5093605;28;20089;-62
2022/10/10 06:19:33;;;;;;;5.13;3.50;;;;;;;8.68;100.00;100286.47;5093764;28;20040;-63
2022/10/10 06:21:59;;;;;;;4.80;3.10;;;;;;;8.63;100.00;100286.94;5093252;28;20039;-62
2022/10/10 06:24:24;;;;;;;6.22;3.42;;;;;;;8.73;100.00;100294.75;5092338;28;20072;-63
2022/10/10 06:26:49;;;;;;;4.82;3.03;;;;;;;8.74;100.00;100287.63;5093392;28;20040;-61
2022/10/10 06:29:15;;;;;;;6.45;3.17;;;;;;;8.82;100.00;100295.66;5093468;28;20485;-61
2022/10/10 06:31:40;;;;;;;6.95;3.78;;;;;;;8.86;100.00;100287.19;5092980;28;20040;-62
2022/10/10 06:34:06;;;;;;;4.63;2.95;;;;;;;8.94;100.00;100303.16;5093301;28;20095;-60
2022/10/10 06:36:32;;;;;;;5.47;3.38;;;;;;;9.03;100.00;100305.84;5093234;28;20050;-61
2022/10/10 06:38:57;;;;;;;6.10;3.20;;;;;;;9.07;100.00;100301.88;5093267;28;20024;-61
2022/10/10 06:41:23;;;;;;;4.55;2.80;;;;;;;9.12;100.00;100310.16;5093204;28;20078;-63
2022/10/10 06:43:50;;;;;;;6.22;3.63;;;;;;;9.16;100.00;100309.69;5092729;28;20451;-63
2022/10/10 06:46:16;;;;;;;7.65;3.85;;;;;;;9.13;100.00;100310.03;5092655;28;20082;-62
2022/10/10 06:48:41;;;;;;;5.53;3.40;;;;;;;9.25;100.00;100327.31;5093204;28;20040;-61
2022/10/10 06:51:13;;;;;;;7.57;3.45;;;;;;;9.30;100.00;100326.00;5092611;28;20044;-65
2022/10/10 06:53:38;;;;;;;6.63;3.75;;;;;;;9.32;100.00;100324.84;5093411;28;20047;-64
2022/10/10 06:56:04;;;;;;;5.07;3.00;;;;;;;9.32;100.00;100332.81;5093585;28;20069;-63
2022/10/10 06:58:30;;;;;;;10.15;3.45;;;;;;;9.35;100.00;100334.31;5093163;28;20044;-62
2022/10/10 07:01:00;;;;;;;4.40;3.28;;;;;;;9.36;100.00;100338.66;5092314;28;20032;-64
2022/10/10 07:03:27;;;;;;;5.32;3.58;;;;;;;9.29;100.00;100338.47;5092784;28;20109;-63
2022/10/10 07:05:56;;;;;;;7.40;4.03;;;;;;;9.33;100.00;100342.47;5092768;28;20057;-63
2022/10/10 07:08:23;;;;;;;8.82;3.70;;;;;;;9.34;100.00;100343.31;5091404;28;20040;-64
2022/10/10 07:10:48;;;;;;;6.93;3.47;;;;;;;9.35;100.00;100352.94;5092284;28;20032;-63
2022/10/10 07:13:14;;;;;;;5.32;3.58;;;;;;;9.35;100.00;100356.44;5092532;28;20039;-61
2022/10/10 07:15:40;;;;;;;8.18;3.75;;;;;;;9.39;100.00;100355.13;5092475;28;20040;-64
2022/10/10 07:18:05;;;;;;;3.90;2.85;;;;;;;9.38;100.00;100355.25;5092462;28;20573;-63
2022/10/10 07:20:33;;;;;;;7.40;3.10;;;;;;;9.35;100.00;100359.09;5091991;28;20485;-64
2022/10/10 07:22:58;;;;;;;6.17;3.27;;;;;;;9.37;100.00;100356.25;5092275;28;20473;-63
2022/10/10 07:25:24;;;;;;;5.30;3.00;;;;;;;9.31;100.00;100348.94;5092141;28;20335;-64
2022/10/10 07:27:50;;;;;;;6.30;3.33;;;;;;;9.31;100.00;100360.38;5092308;28;20036;-62
2022/10/10 07:30:15;;;;;;;4.63;2.95;;;;;;;9.34;100.00;100359.25;5091952;28;20381;-63
2022/10/10 07:32:41;;;;;;;3.65;3.05;;;;;;;9.35;100.00;100361.75;5092137;28;20040;-63
2022/10/10 07:35:07;;;;;;;5.93;3.53;;;;;;;9.38;100.00;100353.44;5092318;28;20036;-62
2022/10/10 07:37:32;;;;;;;5.93;3.05;;;;;;;9.43;100.00;100352.94;5092180;28;20067;-61
2022/10/10 07:39:57;;;;;;;10.63;3.50;;;;;;;9.52;100.00;100360.78;5092161;28;20036;-63
2022/10/10 07:42:23;;;;;;;7.90;3.55;;;;;;;9.59;100.00;100352.16;5091978;28;20040;-61
2022/10/10 07:44:48;;;;;;;6.60;3.38;;;;;;;9.69;100.00;100356.31;5092128;28;20048;-64
2022/10/10 07:47:14;;;;;;;5.82;3.38;;;;;;;9.81;100.00;100354.16;5091949;28;20036;-63
2022/10/10 07:49:39;;;;;;;8.27;3.80;;;;;;;9.94;100.00;100359.81;5092016;28;20512;-62
2022/10/10 07:52:04;;;;;;;7.18;3.58;;;;;;;10.04;100.00;100363.16;5091552;28;20471;-63
2022/10/10 07:54:30;;;;;;;4.95;3.45;;;;;;;10.10;100.00;100358.13;5091936;28;20044;-64
2022/10/10 07:56:56;;;;;;;3.90;2.92;;;;;;;10.26;100.00;100360.84;5091523;28;20032;-64
2022/10/10 07:59:22;;;;;;;4.65;3.65;;;;;;;10.46;100.00;100356.81;5091996;28;20132;-64
2022/10/10 08:01:48;;;;;;;7.38;3.25;;;;;;;10.63;100.00;100356.75;5091666;28;20063;-62
2022/10/10 08:04:13;;;;;;;6.85;3.85;;;;;;;11.02;100.00;100357.63;5091878;28;20074;-63
2022/10/10 08:06:39;;;;;;;8.48;4.00;;;;;;;11.20;100.00;100359.19;5091721;28;20511;-63
2022/10/10 08:09:04;;;;;;;6.85;3.78;;;;;;;11.42;100.00;100358.44;5091674;28;20036;-63
2022/10/10 08:11:30;;;;;;;8.75;3.90;;;;;;;11.64;100.00;100357.59;5091299;28;20040;-64
2022/10/10 08:13:55;;;;;;;5.05;2.97;;;;;;;11.82;100.00;100364.53;5091763;28;20044;-63
2022/10/10 08:16:20;;;;;;;7.07;3.47;;;;;;;11.98;100.00;100372.41;5091808;28;20093;-65
2022/10/10 08:18:46;;;;;;;7.20;3.30;;;;;;;12.05;100.00;100373.34;5091767;28;20051;-65
2022/10/10 08:21:13;;;;;;;11.38;3.92;;;;;;;12.10;100.00;100367.47;5091189;28;20036;-62
2022/10/10 08:23:39;;;;;;;5.95;3.72;;;;;;;12.18;100.00;100370.88;5091868;28;20395;-63
2022/10/10 08:26:07;;;;;;;9.35;4.80;;;;;;;12.51;100.00;100370.56;5091438;28;20131;-64
2022/10/10 08:28:33;;;;;;;6.30;3.65;;;;;;;12.60;100.00;100372.16;5091386;28;20369;-64
2022/10/10 08:30:58;;;;;;;9.23;4.45;;;;;;;12.85;100.00;100379.91;5091053;28;20065;-63
2022/10/10 08:33:27;;;;;;;6.95;3.65;;;;;;;12.90;100.00;100370.31;5091533;28;20435;-61
2022/10/10 08:35:53;;;;;;;8.48;4.65;;;;;;;13.08;100.00;100367.25;5091289;28;20054;-64
2022/10/10 08:38:18;;;;;;;7.88;4.43;;;;;;;13.25;100.00;100367.91;5091515;28;20206;-64
2022/10/10 08:40:49;;;;;;;5.68;4.07;;;;;;;13.52;100.00;100366.38;5091085;28;20098;-64
2022/10/10 08:43:46;;;;;;;8.00;4.57;;;;;;;13.79;100.00;100354.91;5091299;28;20107;-65
2022/10/10 08:46:29;;;;;;;9.10;4.20;;;;;;;13.68;100.00;100346.56;5090791;28;20052;-64
2022/10/10 08:48:59;;;;;;;12.13;5.05;;;;;;;13.82;100.00;100359.91;5091372;28;20408;-64
2022/10/10 08:51:30;;;;;;;8.20;4.95;;;;;;;13.85;100.00;100342.59;5091029;28;20044;-64
2022/10/10 08:54:00;;;;;;;9.35;4.43;;;;;;;14.15;100.00;100355.81;5091122;28;20097;-64
2022/10/10 08:56:30;;;;;;;10.18;4.55;;;;;;;14.34;100.00;100357.84;5091145;28;20123;-65
2022/10/10 08:59:03;;;;;;;11.13;4.65;;;;;;;14.43;99.57;100350.50;5091350;28;20038;-65
2022/10/10 09:01:35;;;;;;;8.10;4.85;;;;;;;14.63;99.40;100354.16;5090985;28;20039;-65
2022/10/10 09:04:03;;;;;;;6.50;4.10;;;;;;;15.14;96.25;100357.31;5091380;28;20036;-64
2022/10/10 09:06:44;;;;;;;10.15;4.35;;;;;;;15.26;96.10;100362.09;5089826;28;20085;-65
2022/10/10 09:09:35;;;;;;;7.20;3.65;;;;;;;15.67;92.40;100359.34;5086608;28;20392;-64
2022/10/10 09:12:31;;;;;;;6.97;4.30;;;;;;;15.88;89.77;100364.53;5093950;28;20524;-62
2022/10/10 09:15:10;;;;;;;8.25;4.15;;;;;;;16.02;87.82;100358.16;5094875;28;20027;-65
2022/10/10 09:17:49;;;;;;;4.80;3.35;;;;;;;16.13;88.52;100359.41;5094357;28;20047;-65
2022/10/10 09:20:23;;;;;;;6.95;3.25;;;;;;;16.09;88.65;100350.09;5094011;28;20032;-65
2022/10/10 09:22:56;;;;;;;6.07;3.40;;;;;;;16.22;90.00;100357.31;5094637;28;20032;-64
2022/10/10 09:25:28;;;;;;;5.07;3.28;;;;;;;16.22;89.84;100354.63;5094660;28;20051;-65
2022/10/10 09:28:00;;;;;;;6.95;3.33;;;;;;;16.32;88.90;100355.06;5094119;28;20036;-65
2022/10/10 09:30:30;;;;;;;7.65;3.80;;;;;;;16.60;88.09;100349.44;5093721;28;20028;-62
2022/10/10 09:33:14;;;;;;;5.72;3.67;;;;;;;16.58;88.13;100348.00;5094328;28;20028;-64
2022/10/10 09:35:40;;;;;;;6.72;4.00;;;;;;;16.73;88.51;100348.59;5093863;28;20063;-64
2022/10/10 09:38:09;;;;;;;5.82;2.97;;;;;;;16.91;87.46;100350.63;5094449;28;20050;-64
2022/10/10 09:40:45;;;;;;;4.68;2.80;;;;;;;17.30;88.26;100349.66;5094254;28;20074;-64
2022/10/10 09:43:16;;;;;;;4.95;2.92;;;;;;;17.35;84.85;100344.44;5094500;28;20039;-65
2022/10/10 09:45:52;;;;;;;10.85;3.65;;;;;;;17.97;84.14;100336.59;5094306;28;20040;-65
2022/10/10 09:48:27;;;;;;;8.63;3.60;;;;;;;18.30;82.00;100331.75;5094494;28;20552;-65
2022/10/10 09:50:52;;;;;;;6.78;2.60;;;;;;;18.89;78.81;100337.59;5093935;28;20048;-65
2022/10/10 09:53:18;;;;;;;4.25;3.10;;;;;;;18.98;78.69;100338.97;5094299;28;20059;-65
2022/10/10 09:55:46;;;;;;;8.38;3.08;;;;;;;19.66;73.63;100338.69;5092839;28;20499;-65
2022/10/10 09:58:31;;;;;;;4.07;2.63;;;;;;;20.10;70.81;100328.44;5094082;28;20044;-65
2022/10/10 10:01:14;;;;;;;4.93;2.70;;;;;;;20.63;70.34;100332.94;5093955;28;20057;-65
2022/10/10 10:03:40;;;;;;;2.72;2.25;;;;;;;21.39;69.23;100331.84;5094088;28;20470;-64
2022/10/10 10:06:13;;;;;;;2.90;2.13;;;;;;;21.88;64.37;100334.03;5094132;28;20044;-66
2022/10/10 10:08:40;;;;;;;4.90;2.65;;;;;;;22.34;61.16;100338.34;5093989;28;20032;-66
2022/10/10 10:11:24;;;;;;;3.73;2.20;;;;;;;22.87;59.70;100334.22;5093734;28;20071;-64
2022/10/10 10:13:54;;;;;;;3.35;2.40;;;;;;;23.39;55.03;100333.72;5092617;28;20313;-65
2022/10/10 10:16:30;;;;;;;6.63;2.78;;;;;;;23.41;54.15;100334.31;5093699;28;20040;-64
2022/10/10 10:18:56;;;;;;;4.47;2.53;;;;;;;23.52;54.25;100336.03;5093594;28;20057;-65
2022/10/10 10:21:23;;;;;;;4.55;2.60;;;;;;;23.93;53.72;100336.47;5093207;28;20496;-66
2022/10/10 10:23:48;;;;;;;3.30;2.20;;;;;;;24.08;56.39;100338.50;5093614;28;20036;-67
2022/10/10 10:26:26;;;;;;;3.35;1.98;;;;;;;24.15;53.88;100332.84;5093490;28;20028;-65
2022/10/10 10:28:53;;;;;;;5.55;2.58;;;;;;;24.80;51.14;100324.28;5093521;28;20040;-65
2022/10/10 10:31:37;;;;;;;4.80;2.58;;;;;;;25.08;50.19;100328.50;5098642;22;20047;-63
2022/10/10 10:34:03;;;;;;;4.15;2.38;;;;;;;25.45;49.42;100330.25;5073530;28;20423;-63
2022/10/10 10:36:51;;;;;;;3.30;2.65;;;;;;;25.63;48.96;100329.75;5073155;28;20028;-63
2022/10/10 10:39:19;;;;;;;4.38;2.33;;;;;;;25.57;49.65;100341.72;5073614;28;20025;-63
2022/10/10 10:41:59;;;;;;;5.85;2.28;;;;;;;25.94;47.53;100346.16;5093039;28;20043;-63
2022/10/10 10:44:40;;;;;;;5.60;2.53;;;;;;;25.80;47.25;100334.13;5092020;28;20028;-62
2022/10/10 10:47:15;;;;;;;2.83;2.20;;;;;;;25.65;48.77;100338.47;5093345;28;20499;-63
2022/10/10 10:50:22;;;;;;;4.05;2.33;;;;;;;26.35;47.77;100329.75;5093182;28;20028;-63
2022/10/10 10:52:53;;;;;;;2.75;2.00;;;;;;;26.64;46.36;100333.53;5043081;28;20085;-63
2022/10/10 10:55:18;;;;;;;3.97;2.22;;;;;;;26.75;45.40;100329.69;5093123;28;20491;-64
2022/10/10 10:58:23;;;;;;;3.20;1.83;;;;;;;27.55;44.35;100328.75;5093003;28;20068;-63
2022/10/10 11:00:59;;;;;;;5.68;1.80;;;;;;;28.21;42.74;100338.41;5092613;28;20672;-64
2022/10/10 11:03:50;;;;;;;2.83;1.75;;;;;;;28.42;43.32;100331.63;5092901;28;20051;-63
2022/10/10 11:06:43;;;;;;;2.10;1.50;;;;;;;28.39;42.90;100329.50;5092875;28;20047;-64
2022/10/10 11:09:33;;;;;;;4.13;1.67;;;;;;;27.92;43.12;100330.19;5092780;28;20036;-64
2022/10/10 11:12:08;;;;;;;1.55;1.30;;;;;;;28.44;42.41;100331.38;5092435;28;20039;-64
2022/10/10 11:14:41;;;;;;;3.88;1.95;;;;;;;28.20;42.40;100328.56;5092807;28;20032;-63
2022/10/10 11:17:18;;;;;;;5.35;1.55;;;;;;;27.63;42.07;100328.16;5092659;28;20035;-63
2022/10/10 11:19:55;;;;;;;2.03;1.52;;;;;;;28.30;42.18;100325.69;5092639;28;20028;-62
2022/10/10 11:22:22;;;;;;;;;;;;;;;28.69;40.75;100314.66;5093110;28;20074;-63
2022/10/10 11:24:57;;;;;;;2.08;1.60;;;;;;;28.87;39.67;100319.34;5092625;28;19927;-63
2022/10/10 11:27:25;;;;;;;4.75;1.70;;;;;;;28.42;41.11;100322.59;5092650;28;20481;-63
2022/10/10 11:30:01;;;;;;;4.28;1.63;;;;;;;28.50;41.95;100319.25;5092266;28;20074;-63
2022/10/10 11:32:36;;;;;;;3.35;1.90;;;;;;;28.84;39.98;100319.94;5092076;28;20082;-64
2022/10/10 11:35:16;;;;;;;5.70;1.60;;;;;;;29.06;40.58;100311.19;5092485;28;20036;-61
2022/10/10 11:37:49;;;;;;;2.50;1.40;;;;;;;29.13;39.69;100310.81;5092398;28;20039;-63
2022/10/10 11:40:27;;;;;;;3.42;1.65;;;;;;;29.80;39.61;100308.75;5091985;28;20039;-63
2022/10/10 11:42:59;;;;;;;2.17;1.60;;;;;;;28.97;39.07;100306.66;5092357;28;20066;-62
2022/10/10 11:45:31;;;;;;;6.03;1.70;;;;;;;28.47;39.01;100314.34;5092240;28;20545;-63
2022/10/10 11:48:17;;;;;;;4.28;1.63;;;;;;;28.77;38.03;100308.53;5092197;28;20032;-63
2022/10/10 11:50:43;;;;;;;2.90;1.40;;;;;;;28.76;39.22;100319.78;5091710;28;20040;-63
2022/10/10 11:53:12;;;;;;;3.28;1.42;;;;;;;29.00;38.96;100314.28;5090828;28;20038;-63
2022/10/10 11:55:46;;;;;;;1.30;1.20;;;;;;;29.82;38.11;100312.00;5092134;28;20064;-64
2022/10/10 11:58:31;;;;;;;3.05;1.63;;;;;;;29.61;39.02;100307.97;5092052;28;20067;-64
2022/10/10 12:01:04;;;;;;;3.03;1.35;;;;;;;30.31;37.19;100301.56;5091620;28;20572;-63
2022/10/10 12:03:29;;;;;;;3.05;1.63;;;;;;;30.29;36.54;100301.06;5091896;28;20066;-63
2022/10/10 12:06:10;;;;;;;3.15;1.60;;;;;;;30.20;36.76;100296.28;5091903;28;20461;-64
2022/10/10 12:08:49;;;;;;;2.20;1.60;;;;;;;30.86;36.34;100296.94;5091883;28;20485;-64
2022/10/10 12:11:21;;;;;;;3.58;2.03;;;;;;;31.24;35.19;100292.00;5091573;28;20411;-63
2022/10/10 12:13:56;;;;;;;1.98;1.17;;;;;;;31.45;34.41;100295.09;5091819;28;20058;-61
2022/10/10 12:16:26;;;;;;;2.80;1.40;;;;;;;31.05;35.04;100296.81;5091687;28;20063;-63
2022/10/10 12:19:01;;;;;;;2.25;1.10;;;;;;;30.87;35.05;100295.81;5091771;28;20046;-63
2022/10/10 12:21:29;;;;;;;2.28;1.40;;;;;;;30.39;35.63;100284.41;5091369;28;20089;-63
2022/10/10 12:24:12;;;;;;;2.85;1.60;;;;;;;30.05;35.93;100292.94;5091853;28;20725;-63
2022/10/10 12:26:58;;;;;;;6.30;1.92;;;;;;;30.76;35.75;100286.16;5091701;28;20044;-63
2022/10/10 12:29:42;;;;;;;3.10;1.37;;;;;;;30.75;35.78;100290.84;5080661;28;20044;-64
2022/10/10 12:32:13;;;;;;;4.00;1.70;;;;;;;30.94;34.56;100295.41;5091286;28;20460;-64
2022/10/10 12:34:41;;;;;;;2.00;1.40;;;;;;;30.93;34.97;100291.84;5090321;28;20047;-64
2022/10/10 12:37:26;;;;;;;2.83;1.50;;;;;;;30.86;34.31;100288.69;5091701;28;20085;-63
2022/10/10 12:40:04;;;;;;;4.13;1.83;;;;;;;30.39;35.41;100285.22;5091511;28;20040;-63
2022/10/10 12:42:36;;;;;;;5.88;2.17;;;;;;;30.44;33.97;100284.28;5091758;28;20030;-63
2022/10/10 12:45:22;;;;;;;3.17;1.60;;;;;;;30.87;33.96;100287.56;5095878;28;20036;-63
2022/10/10 12:47:48;;;;;;;4.25;1.88;;;;;;;30.50;34.18;100285.81;5096255;28;20392;-64
2022/10/10 12:50:39;;;;;;;3.38;1.65;;;;;;;30.26;34.59;100286.03;5095513;28;20043;-63
2022/10/10 12:53:10;;;;;;;2.70;1.70;;;;;;;30.71;35.32;100270.59;5086620;28;20044;-63
2022/10/10 12:55:42;;;;;;;4.07;1.42;;;;;;;30.51;35.40;100271.75;5095529;28;20485;-63
2022/10/10 12:58:14;;;;;;;6.00;2.00;;;;;;;30.99;33.81;100274.09;5095526;28;20561;-64
2022/10/10 13:00:42;;;;;;;7.57;1.63;;;;;;;30.58;34.51;100284.28;5095117;28;20392;-62
2022/10/10 13:03:21;;;;;;;5.85;1.92;;;;;;;30.56;34.88;100279.09;5095337;28;20040;-61
2022/10/10 13:05:50;;;;;;;3.38;1.52;;;;;;;30.40;34.02;100278.59;5095319;28;20063;-61
2022/10/10 13:08:24;;;;;;;3.75;1.38;;;;;;;30.42;33.27;100270.84;5095315;28;20036;-63
2022/10/10 13:11:08;;;;;;;3.45;1.70;;;;;;;29.98;33.77;100276.88;5094879;28;20024;-63
2022/10/10 13:13:34;;;;;;;3.05;1.35;;;;;;;29.75;34.72;100266.84;5095244;28;20114;-63
2022/10/10 13:16:11;;;;;;;4.60;1.60;;;;;;;28.86;34.08;100267.56;5095246;28;20053;-63
2022/10/10 13:18:38;;;;;;;5.18;1.70;;;;;;;28.12;35.02;100273.31;5095374;28;20039;-63
2022/10/10 13:21:11;;;;;;;3.60;1.50;;;;;;;27.91;35.99;100273.78;5094718;28;20439;-63
2022/10/10 13:23:42;;;;;;;4.13;1.67;;;;;;;27.66;36.72;100264.69;5095214;28;20485;-64
2022/10/10 13:26:28;;;;;;;3.65;1.90;;;;;;;27.16;37.67;100266.66;5095185;28;20040;-63
2022/10/10 13:28:56;;;;;;;3.03;1.55;;;;;;;26.75;38.87;100263.31;5095080;28;20063;-64
2022/10/10 13:31:24;;;;;;;2.70;1.23;;;;;;;26.54;38.49;100259.84;5094407;28;20405;-63
2022/10/10 13:34:01;;;;;;;4.25;1.88;;;;;;;26.19;40.28;100275.16;5094719;28;20036;-64
2022/10/10 13:36:28;;;;;;;3.13;1.25;;;;;;;25.92;40.74;100264.56;5094793;28;20036;-63
2022/10/10 13:38:55;;;;;;;6.43;1.98;;;;;;;25.66;42.29;100261.00;5094573;28;20097;-63
2022/10/10 13:41:22;;;;;;;2.47;1.45;;;;;;;25.63;43.18;100264.28;5093059;28;20474;-63
2022/10/10 13:43:48;;;;;;;2.10;1.50;;;;;;;25.37;43.30;100259.91;5094846;28;20075;-63
2022/10/10 13:46:27;;;;;;;3.65;1.33;;;;;;;25.45;44.18;100267.53;5094651;28;20082;-63
2022/10/10 13:48:53;;;;;;;4.80;2.10;;;;;;;25.24;43.76;100261.25;5094490;28;20393;-63
2022/10/10 13:51:19;;;;;;;8.77;2.28;;;;;;;25.10;45.08;100266.41;5093851;28;20120;-63
2022/10/10 13:53:50;;;;;;;5.10;2.08;;;;;;;25.04;46.28;100261.16;5093857;28;20028;-63
2022/10/10 13:56:29;;;;;;;3.08;2.72;;;;;;;24.73;46.76;100265.69;5094448;28;20044;-63
2022/10/10 13:59:00;;;;;;;3.83;1.70;;;;;;;24.81;45.39;100263.25;5094511;28;20035;-63
2022/10/10 14:01:26;;;;;;;5.35;1.70;;;;;;;24.76;45.77;100259.69;5093942;28;20504;-63
2022/10/10 14:03:55;;;;;;;6.18;1.75;;;;;;;24.85;46.05;100269.81;5094080;28;20027;-63
2022/10/10 14:06:24;;;;;;;5.22;1.52;;;;;;;24.71;47.50;100265.94;5094155;28;20028;-63
2022/10/10 14:08:52;;;;;;;3.38;1.67;;;;;;;24.78;48.25;100268.44;5094061;28;20040;-64
2022/10/10 14:11:20;;;;;;;3.75;1.70;;;;;;;24.75;46.98;100269.78;5093602;28;20040;-63
2022/10/10 14:13:52;;;;;;;4.20;1.55;;;;;;;24.58;48.74;100272.72;5094021;28;20036;-63
2022/10/10 14:16:17;;;;;;;3.22;1.92;;;;;;;24.49;48.57;100268.84;5094058;28;20039;-63
2022/10/10 14:18:44;;;;;;;2.60;1.88;;;;;;;24.29;48.87;100277.69;5093899;28;20046;-63
2022/10/10 14:21:10;;;;;;;5.32;1.45;;;;;;;24.09;49.69;100280.28;5093797;28;20093;-63
2022/10/10 14:23:36;;;;;;;4.57;2.10;;;;;;;24.03;50.05;100271.25;5093882;28;20036;-63
2022/10/10 14:26:03;;;;;;;3.17;1.60;;;;;;;24.09;49.86;100274.84;5093900;28;20400;-62
2022/10/10 14:28:31;;;;;;;3.70;1.98;;;;;;;23.93;50.66;100273.91;5093884;28;20051;-63
2022/10/10 14:30:56;;;;;;;2.15;1.42;;;;;;;23.87;51.63;100274.13;5093314;28;20032;-63
2022/10/10 14:33:22;;;;;;;3.40;1.73;;;;;;;23.97;50.83;100274.19;5093695;28;20400;-63
2022/10/10 14:35:49;;;;;;;4.00;1.60;;;;;;;23.95;52.71;100268.22;5093632;28;20495;-63
2022/10/10 14:38:15;;;;;;;;;;;;;;;23.83;51.82;100271.09;5094082;28;20400;-63
2022/10/10 14:40:42;;;;;;;4.28;2.05;;;;;;;23.63;51.44;100277.19;5093201;28;19912;-63
2022/10/10 14:43:08;;;;;;;2.75;1.60;;;;;;;23.61;51.79;100271.22;5092238;28;20038;-63
2022/10/10 14:45:34;;;;;;;2.60;1.75;;;;;;;23.65;52.11;100271.50;5093359;28;20040;-63
2022/10/10 14:47:59;;;;;;;3.63;1.83;;;;;;;23.43;54.17;100275.09;5093526;28;20130;-62
2022/10/10 14:50:30;;;;;;;2.90;1.70;;;;;;;23.40;53.69;100270.13;5091939;28;20048;-63
2022/10/10 14:52:55;;;;;;;2.58;1.52;;;;;;;23.27;54.15;100271.38;5093400;28;20403;-63
2022/10/10 14:55:20;;;;;;;7.60;2.38;;;;;;;23.28;52.93;100273.03;5093296;28;20024;-63
2022/10/10 14:57:46;;;;;;;3.42;1.75;;;;;;;23.22;53.84;100275.97;5093199;28;20119;-63
2022/10/10 15:00:17;;;;;;;4.25;1.77;;;;;;;23.21;53.97;100268.88;5092906;28;20478;-63
2022/10/10 15:02:43;;;;;;;4.68;2.13;;;;;;;23.19;54.89;100269.13;5093080;28;20507;-63
2022/10/10 15:05:09;;;;;;;2.72;1.50;;;;;;;23.12;56.58;100267.69;5091111;28;20035;-63
2022/10/10 15:07:34;;;;;;;3.00;1.83;;;;;;;23.02;57.75;100269.22;5092836;28;20489;-63
2022/10/10 15:10:00;;;;;;;3.40;1.63;;;;;;;23.01;56.49;100273.00;5092734;28;20044;-63
2022/10/10 15:12:25;;;;;;;2.65;1.65;;;;;;;22.87;56.59;100270.94;5092700;28;20068;-62
2022/10/10 15:14:50;;;;;;;5.47;2.22;;;;;;;22.86;57.39;100271.97;5092823;28;20036;-63
2022/10/10 15:17:16;;;;;;;3.45;1.98;;;;;;;22.82;58.00;100276.25;5092722;28;20047;-63
2022/10/10 15:19:41;;;;;;;3.25;1.90;;;;;;;22.75;58.82;100273.75;5092716;28;20519;-63
2022/10/10 15:22:07;;;;;;;5.75;2.38;;;;;;;22.71;59.26;100272.63;5092445;28;20036;-63
2022/10/10 15:24:32;;;;;;;4.70;1.60;;;;;;;22.60;60.60;100279.00;5092895;28;20046;-63
2022/10/10 15:26:58;;;;;;;6.28;2.20;;;;;;;22.53;61.14;100278.34;5092899;28;20043;-64
2022/10/10 15:29:24;;;;;;;3.42;2.05;;;;;;;22.46;60.90;100283.97;5092413;28;20123;-63
2022/10/10 15:31:50;;;;;;;3.60;2.33;;;;;;;22.53;60.59;100281.88;5092145;28;20048;-63
2022/10/10 15:34:17;;;;;;;5.10;2.40;;;;;;;22.48;60.91;100282.63;5092528;28;20040;-62
2022/10/10 15:36:44;;;;;;;4.53;2.30;;;;;;;22.42;61.50;100282.81;5092481;28;20028;-63
2022/10/10 15:39:10;;;;;;;6.47;2.10;;;;;;;22.31;60.51;100278.34;5092456;28;20117;-63
2022/10/10 15:41:36;;;;;;;6.47;2.22;;;;;;;22.27;61.14;100294.28;5092004;28;20071;-63
2022/10/10 15:44:02;;;;;;;4.25;2.42;;;;;;;22.16;61.81;100292.47;5092324;28;20397;-63
2022/10/10 15:46:28;;;;;;;6.47;2.30;;;;;;;22.11;61.81;100300.56;5092585;28;20036;-63
2022/10/10 15:48:54;;;;;;;7.95;4.35;;;;;;;22.09;62.66;100297.25;5092278;28;20590;-63
2022/10/10 15:51:19;;;;;;;3.20;2.10;;;;;;;22.07;63.22;100296.66;5091749;28;20040;-63
2022/10/10 15:53:45;;;;;;;4.05;2.25;;;;;;;22.08;63.51;100296.41;5092050;28;20133;-63
2022/10/10 15:56:12;;;;;;;5.07;1.92;;;;;;;22.02;64.48;100296.56;5090906;28;20050;-63
2022/10/10 15:58:38;;;;;;;;;;;;;;;22.00;64.48;100298.72;5093266;28;20426;-63